sensor_id;sensor_type;location;lat;lon;timestamp;P1;durP1;ratioP1;P2;durP2;ratioP2
16531;SDS011;8378;57.698;11.958;2022-11-21T00:01:31;0.85;;;0.85;;
16531;SDS011;8378;57.698;11.958;2022-11-21T00:03:57;0.80;;;0.80;;
16531;SDS011;8378;57.698;11.958;2022-11-21T00:06:22;0.60;;;0.60;;
16531;SDS011;8378;57.698;11.958;2022-11-21T00:08:48;1.00;;;0.90;;
16531;SDS011;8378;57.698;11.958;2022-11-21T00:11:14;0.70;;;0.70;;
16531;SDS011;8378;57.698;11.958;2022-11-21T00:13:40;0.73;;;0.73;;
16531;SDS011;8378;57.698;11.958;2022-11-21T00:16:07;0.80;;;0.80;;
16531;SDS011;8378;57.698;11.958;2022-11-21T00:18:35;0.95;;;0.90;;
16531;SDS011;8378;57.698;11.958;2022-11-21T00:21:07;0.70;;;0.70;;
16531;SDS011;8378;57.698;11.958;2022-11-21T00:23:36;0.80;;;0.80;;
16531;SDS011;8378;57.698;11.958;2022-11-21T00:26:03;0.80;;;0.80;;
16531;SDS011;8378;57.698;11.958;2022-11-21T00:28:30;0.82;;;0.82;;
16531;SDS011;8378;57.698;11.958;2022-11-21T00:30:56;0.80;;;0.80;;
16531;SDS011;8378;57.698;11.958;2022-11-21T00:33:21;0.63;;;0.63;;
16531;SDS011;8378;57.698;11.958;2022-11-21T00:35:47;0.70;;;0.70;;
16531;SDS011;8378;57.698;11.958;2022-11-21T00:38:13;0.73;;;0.73;;
16531;SDS011;8378;57.698;11.958;2022-11-21T00:40:41;0.65;;;0.65;;
16531;SDS011;8378;57.698;11.958;2022-11-21T00:43:08;0.95;;;0.90;;
16531;SDS011;8378;57.698;11.958;2022-11-21T00:45:33;0.55;;;0.40;;
16531;SDS011;8378;57.698;11.958;2022-11-21T00:47:59;0.77;;;0.70;;
16531;SDS011;8378;57.698;11.958;2022-11-21T00:50:25;1.17;;;0.90;;
16531;SDS011;8378;57.698;11.958;2022-11-21T00:52:59;0.60;;;0.60;;
16531;SDS011;8378;57.698;11.958;2022-11-21T00:55:25;0.70;;;0.70;;
16531;SDS011;8378;57.698;11.958;2022-11-21T00:57:50;0.75;;;0.75;;
16531;SDS011;8378;57.698;11.958;2022-11-21T01:00:16;0.73;;;0.73;;
16531;SDS011;8378;57.698;11.958;2022-11-21T01:02:42;0.80;;;0.80;;
16531;SDS011;8378;57.698;11.958;2022-11-21T01:05:08;0.60;;;0.60;;
16531;SDS011;8378;57.698;11.958;2022-11-21T01:07:34;0.68;;;0.68;;
16531;SDS011;8378;57.698;11.958;2022-11-21T01:10:00;0.57;;;0.57;;
16531;SDS011;8378;57.698;11.958;2022-11-21T01:12:25;0.55;;;0.55;;
16531;SDS011;8378;57.698;11.958;2022-11-21T01:14:51;0.50;;;0.50;;
16531;SDS011;8378;57.698;11.958;2022-11-21T01:17:17;0.60;;;0.60;;
16531;SDS011;8378;57.698;11.958;2022-11-21T01:19:42;0.50;;;0.50;;
16531;SDS011;8378;57.698;11.958;2022-11-21T01:22:08;0.50;;;0.50;;
16531;SDS011;8378;57.698;11.958;2022-11-21T01:24:34;0.68;;;0.68;;
16531;SDS011;8378;57.698;11.958;2022-11-21T01:26:59;0.60;;;0.60;;
16531;SDS011;8378;57.698;11.958;2022-11-21T01:29:26;0.73;;;0.73;;
16531;SDS011;8378;57.698;11.958;2022-11-21T01:31:52;0.60;;;0.60;;
16531;SDS011;8378;57.698;11.958;2022-11-21T01:34:17;0.95;;;0.75;;
16531;SDS011;8378;57.698;11.958;2022-11-21T01:36:43;0.70;;;0.70;;
16531;SDS011;8378;57.698;11.958;2022-11-21T01:39:09;0.60;;;0.60;;
16531;SDS011;8378;57.698;11.958;2022-11-21T01:41:39;0.75;;;0.75;;
16531;SDS011;8378;57.698;11.958;2022-11-21T01:44:19;0.77;;;0.73;;
16531;SDS011;8378;57.698;11.958;2022-11-21T01:46:50;0.60;;;0.60;;
16531;SDS011;8378;57.698;11.958;2022-11-21T01:49:17;0.73;;;0.73;;
16531;SDS011;8378;57.698;11.958;2022-11-21T01:54:32;1.38;;;1.00;;
16531;SDS011;8378;57.698;11.958;2022-11-21T01:57:07;0.65;;;0.65;;
16531;SDS011;8378;57.698;11.958;2022-11-21T01:59:47;0.65;;;0.65;;
16531;SDS011;8378;57.698;11.958;2022-11-21T02:02:14;0.80;;;0.80;;
16531;SDS011;8378;57.698;11.958;2022-11-21T02:04:44;0.80;;;0.80;;
16531;SDS011;8378;57.698;11.958;2022-11-21T02:07:11;1.05;;;0.95;;
16531;SDS011;8378;57.698;11.958;2022-11-21T02:09:39;1.20;;;1.10;;
16531;SDS011;8378;57.698;11.958;2022-11-21T02:12:08;0.65;;;0.65;;
16531;SDS011;8378;57.698;11.958;2022-11-21T02:14:40;0.90;;;0.90;;
16531;SDS011;8378;57.698;11.958;2022-11-21T02:17:08;0.90;;;0.90;;
16531;SDS011;8378;57.698;11.958;2022-11-21T02:27:32;1.08;;;0.98;;
16531;SDS011;8378;57.698;11.958;2022-11-21T02:29:58;0.77;;;0.77;;
16531;SDS011;8378;57.698;11.958;2022-11-21T02:32:31;0.95;;;0.90;;
16531;SDS011;8378;57.698;11.958;2022-11-21T02:35:05;1.08;;;1.00;;
16531;SDS011;8378;57.698;11.958;2022-11-21T02:37:32;0.88;;;0.80;;
16531;SDS011;8378;57.698;11.958;2022-11-21T02:40:00;1.10;;;1.00;;
16531;SDS011;8378;57.698;11.958;2022-11-21T02:42:40;0.90;;;0.90;;
16531;SDS011;8378;57.698;11.958;2022-11-21T02:45:31;0.88;;;0.88;;
16531;SDS011;8378;57.698;11.958;2022-11-21T02:48:00;1.20;;;1.10;;
16531;SDS011;8378;57.698;11.958;2022-11-21T02:50:30;0.85;;;0.85;;
16531;SDS011;8378;57.698;11.958;2022-11-21T02:52:57;1.17;;;0.80;;
16531;SDS011;8378;57.698;11.958;2022-11-21T02:55:23;0.90;;;0.80;;
16531;SDS011;8378;57.698;11.958;2022-11-21T02:57:49;0.82;;;0.82;;
16531;SDS011;8378;57.698;11.958;2022-11-21T03:00:16;0.80;;;0.80;;
16531;SDS011;8378;57.698;11.958;2022-11-21T03:02:42;0.90;;;0.90;;
16531;SDS011;8378;57.698;11.958;2022-11-21T03:05:10;0.80;;;0.80;;
16531;SDS011;8378;57.698;11.958;2022-11-21T03:07:38;0.60;;;0.60;;
16531;SDS011;8378;57.698;11.958;2022-11-21T03:10:04;0.80;;;0.80;;
16531;SDS011;8378;57.698;11.958;2022-11-21T03:12:30;0.82;;;0.82;;
16531;SDS011;8378;57.698;11.958;2022-11-21T03:14:56;0.65;;;0.65;;
16531;SDS011;8378;57.698;11.958;2022-11-21T03:17:22;0.75;;;0.75;;
16531;SDS011;8378;57.698;11.958;2022-11-21T03:19:47;0.85;;;0.85;;
16531;SDS011;8378;57.698;11.958;2022-11-21T03:22:13;0.77;;;0.77;;
16531;SDS011;8378;57.698;11.958;2022-11-21T03:24:39;0.75;;;0.75;;
16531;SDS011;8378;57.698;11.958;2022-11-21T03:27:05;0.60;;;0.60;;
16531;SDS011;8378;57.698;11.958;2022-11-21T03:29:31;0.70;;;0.70;;
16531;SDS011;8378;57.698;11.958;2022-11-21T03:31:57;0.50;;;0.50;;
16531;SDS011;8378;57.698;11.958;2022-11-21T03:34:22;0.80;;;0.80;;
16531;SDS011;8378;57.698;11.958;2022-11-21T03:36:49;0.70;;;0.70;;
16531;SDS011;8378;57.698;11.958;2022-11-21T03:39:15;0.60;;;0.60;;
16531;SDS011;8378;57.698;11.958;2022-11-21T03:41:40;0.70;;;0.70;;
16531;SDS011;8378;57.698;11.958;2022-11-21T03:44:07;0.43;;;0.43;;
16531;SDS011;8378;57.698;11.958;2022-11-21T03:46:35;0.52;;;0.52;;
16531;SDS011;8378;57.698;11.958;2022-11-21T03:49:03;0.50;;;0.50;;
16531;SDS011;8378;57.698;11.958;2022-11-21T03:51:30;0.45;;;0.45;;
16531;SDS011;8378;57.698;11.958;2022-11-21T03:53:55;1.30;;;0.47;;
16531;SDS011;8378;57.698;11.958;2022-11-21T03:56:21;0.73;;;0.73;;
16531;SDS011;8378;57.698;11.958;2022-11-21T03:58:47;0.75;;;0.75;;
16531;SDS011;8378;57.698;11.958;2022-11-21T04:01:13;0.75;;;0.75;;
16531;SDS011;8378;57.698;11.958;2022-11-21T04:03:40;0.50;;;0.50;;
16531;SDS011;8378;57.698;11.958;2022-11-21T04:06:06;0.70;;;0.70;;
16531;SDS011;8378;57.698;11.958;2022-11-21T04:08:33;0.63;;;0.63;;
16531;SDS011;8378;57.698;11.958;2022-11-21T04:10:58;0.70;;;0.70;;
16531;SDS011;8378;57.698;11.958;2022-11-21T04:13:24;0.55;;;0.55;;
16531;SDS011;8378;57.698;11.958;2022-11-21T04:15:49;0.47;;;0.47;;
16531;SDS011;8378;57.698;11.958;2022-11-21T04:18:15;0.60;;;0.60;;
16531;SDS011;8378;57.698;11.958;2022-11-21T04:20:41;0.70;;;0.70;;
16531;SDS011;8378;57.698;11.958;2022-11-21T04:23:07;0.70;;;0.70;;
16531;SDS011;8378;57.698;11.958;2022-11-21T04:25:32;0.55;;;0.50;;
16531;SDS011;8378;57.698;11.958;2022-11-21T04:27:59;0.65;;;0.65;;
16531;SDS011;8378;57.698;11.958;2022-11-21T04:30:25;0.60;;;0.60;;
16531;SDS011;8378;57.698;11.958;2022-11-21T04:32:52;0.57;;;0.57;;
16531;SDS011;8378;57.698;11.958;2022-11-21T04:35:18;0.40;;;0.40;;
16531;SDS011;8378;57.698;11.958;2022-11-21T04:37:44;0.52;;;0.52;;
16531;SDS011;8378;57.698;11.958;2022-11-21T04:40:10;0.80;;;0.80;;
16531;SDS011;8378;57.698;11.958;2022-11-21T04:42:36;0.95;;;0.90;;
16531;SDS011;8378;57.698;11.958;2022-11-21T04:45:05;0.73;;;0.73;;
16531;SDS011;8378;57.698;11.958;2022-11-21T04:47:31;1.08;;;0.52;;
16531;SDS011;8378;57.698;11.958;2022-11-21T04:49:56;0.57;;;0.57;;
16531;SDS011;8378;57.698;11.958;2022-11-21T04:52:22;0.70;;;0.70;;
16531;SDS011;8378;57.698;11.958;2022-11-21T04:54:48;0.70;;;0.70;;
16531;SDS011;8378;57.698;11.958;2022-11-21T04:57:13;0.68;;;0.68;;
16531;SDS011;8378;57.698;11.958;2022-11-21T04:59:39;0.82;;;0.82;;
16531;SDS011;8378;57.698;11.958;2022-11-21T05:02:05;0.80;;;0.80;;
16531;SDS011;8378;57.698;11.958;2022-11-21T05:04:30;0.57;;;0.57;;
16531;SDS011;8378;57.698;11.958;2022-11-21T05:06:56;0.70;;;0.70;;
16531;SDS011;8378;57.698;11.958;2022-11-21T05:09:22;0.65;;;0.65;;
16531;SDS011;8378;57.698;11.958;2022-11-21T05:11:47;0.60;;;0.60;;
16531;SDS011;8378;57.698;11.958;2022-11-21T05:14:31;0.60;;;0.60;;
16531;SDS011;8378;57.698;11.958;2022-11-21T05:16:57;0.60;;;0.60;;
16531;SDS011;8378;57.698;11.958;2022-11-21T05:19:22;0.60;;;0.60;;
16531;SDS011;8378;57.698;11.958;2022-11-21T05:21:48;0.70;;;0.70;;
16531;SDS011;8378;57.698;11.958;2022-11-21T05:24:14;0.70;;;0.70;;
16531;SDS011;8378;57.698;11.958;2022-11-21T05:26:40;0.70;;;0.70;;
16531;SDS011;8378;57.698;11.958;2022-11-21T05:29:06;0.70;;;0.70;;
16531;SDS011;8378;57.698;11.958;2022-11-21T05:31:31;0.52;;;0.52;;
16531;SDS011;8378;57.698;11.958;2022-11-21T05:33:57;0.50;;;0.50;;
16531;SDS011;8378;57.698;11.958;2022-11-21T05:36:22;0.52;;;0.52;;
16531;SDS011;8378;57.698;11.958;2022-11-21T05:38:48;0.60;;;0.60;;
16531;SDS011;8378;57.698;11.958;2022-11-21T05:41:14;0.40;;;0.40;;
16531;SDS011;8378;57.698;11.958;2022-11-21T05:43:40;0.50;;;0.50;;
16531;SDS011;8378;57.698;11.958;2022-11-21T05:46:12;0.50;;;0.50;;
16531;SDS011;8378;57.698;11.958;2022-11-21T05:48:42;0.73;;;0.73;;
16531;SDS011;8378;57.698;11.958;2022-11-21T05:51:08;0.73;;;0.73;;
16531;SDS011;8378;57.698;11.958;2022-11-21T05:53:34;0.40;;;0.40;;
16531;SDS011;8378;57.698;11.958;2022-11-21T05:56:06;0.70;;;0.70;;
16531;SDS011;8378;57.698;11.958;2022-11-21T05:58:33;0.57;;;0.57;;
16531;SDS011;8378;57.698;11.958;2022-11-21T06:00:59;0.50;;;0.50;;
16531;SDS011;8378;57.698;11.958;2022-11-21T06:03:26;0.80;;;0.80;;
16531;SDS011;8378;57.698;11.958;2022-11-21T06:08:37;0.60;;;0.60;;
16531;SDS011;8378;57.698;11.958;2022-11-21T06:11:05;0.68;;;0.68;;
16531;SDS011;8378;57.698;11.958;2022-11-21T06:13:31;0.70;;;0.70;;
16531;SDS011;8378;57.698;11.958;2022-11-21T06:16:02;0.75;;;0.60;;
16531;SDS011;8378;57.698;11.958;2022-11-21T06:18:34;0.70;;;0.70;;
16531;SDS011;8378;57.698;11.958;2022-11-21T06:21:07;0.77;;;0.77;;
16531;SDS011;8378;57.698;11.958;2022-11-21T06:23:34;0.35;;;0.35;;
16531;SDS011;8378;57.698;11.958;2022-11-21T06:26:01;0.90;;;0.60;;
16531;SDS011;8378;57.698;11.958;2022-11-21T06:28:35;0.77;;;0.77;;
16531;SDS011;8378;57.698;11.958;2022-11-21T06:31:03;0.80;;;0.80;;
16531;SDS011;8378;57.698;11.958;2022-11-21T06:33:28;0.60;;;0.60;;
16531;SDS011;8378;57.698;11.958;2022-11-21T06:35:54;0.90;;;0.65;;
16531;SDS011;8378;57.698;11.958;2022-11-21T06:38:20;0.43;;;0.43;;
16531;SDS011;8378;57.698;11.958;2022-11-21T06:40:45;0.50;;;0.50;;
16531;SDS011;8378;57.698;11.958;2022-11-21T06:43:11;0.60;;;0.60;;
16531;SDS011;8378;57.698;11.958;2022-11-21T06:45:36;1.08;;;0.70;;
16531;SDS011;8378;57.698;11.958;2022-11-21T06:48:02;0.77;;;0.77;;
16531;SDS011;8378;57.698;11.958;2022-11-21T06:50:28;0.60;;;0.60;;
16531;SDS011;8378;57.698;11.958;2022-11-21T06:52:58;0.90;;;0.77;;
16531;SDS011;8378;57.698;11.958;2022-11-21T06:55:24;0.77;;;0.60;;
16531;SDS011;8378;57.698;11.958;2022-11-21T06:57:52;1.20;;;1.10;;
16531;SDS011;8378;57.698;11.958;2022-11-21T07:00:18;1.13;;;0.90;;
16531;SDS011;8378;57.698;11.958;2022-11-21T07:02:45;4.85;;;1.50;;
16531;SDS011;8378;57.698;11.958;2022-11-21T07:05:11;3.13;;;1.70;;
16531;SDS011;8378;57.698;11.958;2022-11-21T07:07:36;4.43;;;1.40;;
16531;SDS011;8378;57.698;11.958;2022-11-21T07:10:02;3.25;;;1.70;;
16531;SDS011;8378;57.698;11.958;2022-11-21T07:12:28;2.28;;;1.50;;
16531;SDS011;8378;57.698;11.958;2022-11-21T07:15:12;4.45;;;1.25;;
16531;SDS011;8378;57.698;11.958;2022-11-21T07:17:38;2.30;;;1.27;;
16531;SDS011;8378;57.698;11.958;2022-11-21T07:20:04;3.75;;;1.20;;
16531;SDS011;8378;57.698;11.958;2022-11-21T07:22:30;2.75;;;1.42;;
16531;SDS011;8378;57.698;11.958;2022-11-21T07:24:55;2.40;;;1.38;;
16531;SDS011;8378;57.698;11.958;2022-11-21T07:27:21;2.40;;;1.40;;
16531;SDS011;8378;57.698;11.958;2022-11-21T07:29:47;4.40;;;1.60;;
16531;SDS011;8378;57.698;11.958;2022-11-21T07:32:13;2.10;;;1.50;;
16531;SDS011;8378;57.698;11.958;2022-11-21T07:34:39;2.45;;;1.25;;
16531;SDS011;8378;57.698;11.958;2022-11-21T07:37:04;2.17;;;1.25;;
16531;SDS011;8378;57.698;11.958;2022-11-21T07:39:30;2.03;;;1.10;;
16531;SDS011;8378;57.698;11.958;2022-11-21T07:41:55;2.45;;;1.10;;
16531;SDS011;8378;57.698;11.958;2022-11-21T07:44:21;2.63;;;1.23;;
16531;SDS011;8378;57.698;11.958;2022-11-21T07:46:47;2.10;;;1.30;;
16531;SDS011;8378;57.698;11.958;2022-11-21T07:49:12;1.25;;;1.10;;
16531;SDS011;8378;57.698;11.958;2022-11-21T07:51:38;1.77;;;1.10;;
16531;SDS011;8378;57.698;11.958;2022-11-21T07:54:03;3.28;;;1.30;;
16531;SDS011;8378;57.698;11.958;2022-11-21T07:56:29;2.13;;;1.27;;
16531;SDS011;8378;57.698;11.958;2022-11-21T07:58:55;1.50;;;1.10;;
16531;SDS011;8378;57.698;11.958;2022-11-21T08:01:20;1.52;;;1.20;;
16531;SDS011;8378;57.698;11.958;2022-11-21T08:03:46;1.42;;;1.02;;
16531;SDS011;8378;57.698;11.958;2022-11-21T08:06:11;3.42;;;1.50;;
16531;SDS011;8378;57.698;11.958;2022-11-21T08:08:37;1.85;;;1.20;;
16531;SDS011;8378;57.698;11.958;2022-11-21T08:11:04;1.02;;;0.93;;
16531;SDS011;8378;57.698;11.958;2022-11-21T08:13:30;2.65;;;1.02;;
16531;SDS011;8378;57.698;11.958;2022-11-21T08:15:56;1.77;;;1.23;;
16531;SDS011;8378;57.698;11.958;2022-11-21T08:18:22;2.40;;;1.10;;
16531;SDS011;8378;57.698;11.958;2022-11-21T08:20:47;1.05;;;1.00;;
16531;SDS011;8378;57.698;11.958;2022-11-21T08:23:13;1.48;;;1.20;;
16531;SDS011;8378;57.698;11.958;2022-11-21T08:25:40;1.50;;;1.17;;
16531;SDS011;8378;57.698;11.958;2022-11-21T08:28:07;1.35;;;1.08;;
16531;SDS011;8378;57.698;11.958;2022-11-21T08:30:34;1.45;;;1.00;;
16531;SDS011;8378;57.698;11.958;2022-11-21T08:33:00;1.58;;;1.00;;
16531;SDS011;8378;57.698;11.958;2022-11-21T08:35:26;1.00;;;0.95;;
16531;SDS011;8378;57.698;11.958;2022-11-21T08:37:59;1.10;;;1.02;;
16531;SDS011;8378;57.698;11.958;2022-11-21T08:40:26;1.00;;;0.90;;
16531;SDS011;8378;57.698;11.958;2022-11-21T08:43:00;1.17;;;1.08;;
16531;SDS011;8378;57.698;11.958;2022-11-21T08:45:27;1.17;;;1.08;;
16531;SDS011;8378;57.698;11.958;2022-11-21T08:47:53;1.65;;;1.20;;
16531;SDS011;8378;57.698;11.958;2022-11-21T08:50:19;1.20;;;1.10;;
16531;SDS011;8378;57.698;11.958;2022-11-21T08:52:45;1.75;;;1.10;;
16531;SDS011;8378;57.698;11.958;2022-11-21T08:55:11;1.20;;;1.00;;
16531;SDS011;8378;57.698;11.958;2022-11-21T08:57:37;0.85;;;0.85;;
16531;SDS011;8378;57.698;11.958;2022-11-21T09:00:04;1.15;;;0.85;;
16531;SDS011;8378;57.698;11.958;2022-11-21T09:02:30;2.05;;;1.15;;
16531;SDS011;8378;57.698;11.958;2022-11-21T09:04:56;0.88;;;0.88;;
16531;SDS011;8378;57.698;11.958;2022-11-21T09:07:22;0.95;;;0.82;;
16531;SDS011;8378;57.698;11.958;2022-11-21T09:09:47;0.95;;;0.82;;
16531;SDS011;8378;57.698;11.958;2022-11-21T09:12:13;1.30;;;1.02;;
16531;SDS011;8378;57.698;11.958;2022-11-21T09:14:38;1.83;;;1.02;;
16531;SDS011;8378;57.698;11.958;2022-11-21T09:17:23;0.85;;;0.85;;
16531;SDS011;8378;57.698;11.958;2022-11-21T09:20:07;1.10;;;1.00;;
16531;SDS011;8378;57.698;11.958;2022-11-21T09:22:33;0.90;;;0.82;;
16531;SDS011;8378;57.698;11.958;2022-11-21T09:24:58;0.90;;;0.90;;
16531;SDS011;8378;57.698;11.958;2022-11-21T09:27:24;2.92;;;0.90;;
16531;SDS011;8378;57.698;11.958;2022-11-21T09:29:50;0.82;;;0.82;;
16531;SDS011;8378;57.698;11.958;2022-11-21T09:32:15;1.02;;;0.93;;
16531;SDS011;8378;57.698;11.958;2022-11-21T09:34:41;1.17;;;1.05;;
16531;SDS011;8378;57.698;11.958;2022-11-21T09:37:06;1.00;;;0.80;;
16531;SDS011;8378;57.698;11.958;2022-11-21T09:39:32;1.48;;;0.95;;
16531;SDS011;8378;57.698;11.958;2022-11-21T09:47:49;0.93;;;0.80;;
16531;SDS011;8378;57.698;11.958;2022-11-21T09:50:33;0.80;;;0.80;;
16531;SDS011;8378;57.698;11.958;2022-11-21T09:53:05;1.10;;;1.00;;
16531;SDS011;8378;57.698;11.958;2022-11-21T09:55:41;1.10;;;0.80;;
16531;SDS011;8378;57.698;11.958;2022-11-21T09:58:13;0.80;;;0.80;;
16531;SDS011;8378;57.698;11.958;2022-11-21T10:00:40;0.80;;;0.80;;
16531;SDS011;8378;57.698;11.958;2022-11-21T10:03:07;0.95;;;0.95;;
16531;SDS011;8378;57.698;11.958;2022-11-21T10:05:53;0.95;;;0.90;;
16531;SDS011;8378;57.698;11.958;2022-11-21T10:08:36;1.20;;;0.93;;
16531;SDS011;8378;57.698;11.958;2022-11-21T10:17:12;1.15;;;1.05;;
16531;SDS011;8378;57.698;11.958;2022-11-21T10:23:00;0.90;;;0.90;;
16531;SDS011;8378;57.698;11.958;2022-11-21T10:25:25;1.90;;;1.05;;
16531;SDS011;8378;57.698;11.958;2022-11-21T10:30:25;2.58;;;2.38;;
16531;SDS011;8378;57.698;11.958;2022-11-21T10:32:55;6.78;;;6.28;;
16531;SDS011;8378;57.698;11.958;2022-11-21T10:35:37;5.25;;;4.85;;
16531;SDS011;8378;57.698;11.958;2022-11-21T10:38:20;4.25;;;3.95;;
16531;SDS011;8378;57.698;11.958;2022-11-21T10:40:51;4.35;;;4.00;;
16531;SDS011;8378;57.698;11.958;2022-11-21T10:43:31;2.90;;;2.70;;
16531;SDS011;8378;57.698;11.958;2022-11-21T10:46:17;3.00;;;2.78;;
16531;SDS011;8378;57.698;11.958;2022-11-21T10:48:45;2.83;;;2.63;;
16531;SDS011;8378;57.698;11.958;2022-11-21T10:54:10;2.00;;;1.80;;
16531;SDS011;8378;57.698;11.958;2022-11-21T10:56:58;1.63;;;1.52;;
16531;SDS011;8378;57.698;11.958;2022-11-21T10:59:40;1.77;;;1.50;;
16531;SDS011;8378;57.698;11.958;2022-11-21T11:02:21;1.40;;;1.30;;
16531;SDS011;8378;57.698;11.958;2022-11-21T11:04:48;1.15;;;1.05;;
16531;SDS011;8378;57.698;11.958;2022-11-21T11:07:21;1.07;;;0.90;;
16531;SDS011;8378;57.698;11.958;2022-11-21T11:09:49;1.50;;;1.23;;
16531;SDS011;8378;57.698;11.958;2022-11-21T11:12:25;1.48;;;1.10;;
16531;SDS011;8378;57.698;11.958;2022-11-21T11:15:21;0.90;;;0.90;;
16531;SDS011;8378;57.698;11.958;2022-11-21T11:17:48;1.20;;;1.10;;
16531;SDS011;8378;57.698;11.958;2022-11-21T11:25:49;4.28;;;2.10;;
16531;SDS011;8378;57.698;11.958;2022-11-21T11:28:19;2.22;;;2.03;;
16531;SDS011;8378;57.698;11.958;2022-11-21T11:30:49;2.55;;;1.80;;
16531;SDS011;8378;57.698;11.958;2022-11-21T11:39:31;1.92;;;1.65;;
16531;SDS011;8378;57.698;11.958;2022-11-21T11:42:23;1.63;;;1.40;;
16531;SDS011;8378;57.698;11.958;2022-11-21T11:45:47;1.40;;;1.30;;
16531;SDS011;8378;57.698;11.958;2022-11-21T11:48:40;1.20;;;1.10;;
16531;SDS011;8378;57.698;11.958;2022-11-21T11:51:16;1.60;;;1.30;;
16531;SDS011;8378;57.698;11.958;2022-11-21T11:53:51;1.40;;;1.20;;
16531;SDS011;8378;57.698;11.958;2022-11-21T11:56:24;1.30;;;1.10;;
16531;SDS011;8378;57.698;11.958;2022-11-21T11:59:02;1.30;;;1.20;;
16531;SDS011;8378;57.698;11.958;2022-11-21T12:01:51;1.33;;;1.23;;
16531;SDS011;8378;57.698;11.958;2022-11-21T12:04:32;1.30;;;1.20;;
16531;SDS011;8378;57.698;11.958;2022-11-21T12:07:11;1.30;;;1.20;;
16531;SDS011;8378;57.698;11.958;2022-11-21T12:10:00;1.33;;;1.23;;
16531;SDS011;8378;57.698;11.958;2022-11-21T12:12:34;1.45;;;1.35;;
16531;SDS011;8378;57.698;11.958;2022-11-21T12:15:17;1.23;;;1.13;;
16531;SDS011;8378;57.698;11.958;2022-11-21T12:23:32;1.38;;;1.27;;
16531;SDS011;8378;57.698;11.958;2022-11-21T12:45:30;1.50;;;1.38;;
16531;SDS011;8378;57.698;11.958;2022-11-21T12:54:22;1.30;;;1.20;;
16531;SDS011;8378;57.698;11.958;2022-11-21T12:57:10;1.13;;;1.02;;
16531;SDS011;8378;57.698;11.958;2022-11-21T13:03:03;1.23;;;1.13;;
16531;SDS011;8378;57.698;11.958;2022-11-21T13:05:44;1.10;;;1.00;;
16531;SDS011;8378;57.698;11.958;2022-11-21T13:08:14;1.30;;;1.20;;
16531;SDS011;8378;57.698;11.958;2022-11-21T13:11:02;1.25;;;1.15;;
16531;SDS011;8378;57.698;11.958;2022-11-21T13:13:55;1.17;;;1.08;;
16531;SDS011;8378;57.698;11.958;2022-11-21T13:16:31;1.38;;;1.27;;
16531;SDS011;8378;57.698;11.958;2022-11-21T13:19:17;1.90;;;1.23;;
16531;SDS011;8378;57.698;11.958;2022-11-21T13:21:52;1.40;;;1.10;;
16531;SDS011;8378;57.698;11.958;2022-11-21T13:32:49;1.50;;;1.40;;
16531;SDS011;8378;57.698;11.958;2022-11-21T13:45:46;1.25;;;1.15;;
16531;SDS011;8378;57.698;11.958;2022-11-21T13:53:55;1.40;;;1.30;;
16531;SDS011;8378;57.698;11.958;2022-11-21T13:56:51;1.45;;;1.33;;
16531;SDS011;8378;57.698;11.958;2022-11-21T14:02:16;1.58;;;1.42;;
16531;SDS011;8378;57.698;11.958;2022-11-21T14:04:56;1.60;;;1.50;;
16531;SDS011;8378;57.698;11.958;2022-11-21T14:07:32;1.40;;;1.30;;
16531;SDS011;8378;57.698;11.958;2022-11-21T14:10:04;1.67;;;1.58;;
16531;SDS011;8378;57.698;11.958;2022-11-21T14:12:55;1.60;;;1.50;;
16531;SDS011;8378;57.698;11.958;2022-11-21T14:15:28;1.52;;;1.35;;
16531;SDS011;8378;57.698;11.958;2022-11-21T14:18:19;1.63;;;1.30;;
16531;SDS011;8378;57.698;11.958;2022-11-21T14:20:53;1.50;;;1.40;;
16531;SDS011;8378;57.698;11.958;2022-11-21T14:23:21;1.50;;;1.40;;
16531;SDS011;8378;57.698;11.958;2022-11-21T14:26:13;1.70;;;1.60;;
16531;SDS011;8378;57.698;11.958;2022-11-21T14:28:43;1.83;;;1.73;;
16531;SDS011;8378;57.698;11.958;2022-11-21T14:31:10;1.80;;;1.70;;
16531;SDS011;8378;57.698;11.958;2022-11-21T14:33:37;2.00;;;1.60;;
16531;SDS011;8378;57.698;11.958;2022-11-21T14:36:19;1.65;;;1.55;;
16531;SDS011;8378;57.698;11.958;2022-11-21T14:38:52;1.65;;;1.55;;
16531;SDS011;8378;57.698;11.958;2022-11-21T14:46:22;1.60;;;1.50;;
16531;SDS011;8378;57.698;11.958;2022-11-21T14:48:49;1.67;;;1.58;;
16531;SDS011;8378;57.698;11.958;2022-11-21T14:51:17;4.13;;;1.65;;
16531;SDS011;8378;57.698;11.958;2022-11-21T14:53:52;1.50;;;1.40;;
16531;SDS011;8378;57.698;11.958;2022-11-21T14:56:25;1.70;;;1.60;;
16531;SDS011;8378;57.698;11.958;2022-11-21T14:58:52;2.83;;;1.55;;
16531;SDS011;8378;57.698;11.958;2022-11-21T15:01:24;1.77;;;1.60;;
16531;SDS011;8378;57.698;11.958;2022-11-21T15:06:21;2.10;;;1.90;;
16531;SDS011;8378;57.698;11.958;2022-11-21T15:08:47;1.88;;;1.70;;
16531;SDS011;8378;57.698;11.958;2022-11-21T15:11:12;1.83;;;1.70;;
16531;SDS011;8378;57.698;11.958;2022-11-21T15:13:41;1.92;;;1.60;;
16531;SDS011;8378;57.698;11.958;2022-11-21T15:16:13;2.15;;;1.63;;
16531;SDS011;8378;57.698;11.958;2022-11-21T15:18:42;1.98;;;1.80;;
16531;SDS011;8378;57.698;11.958;2022-11-21T15:21:07;2.35;;;1.88;;
16531;SDS011;8378;57.698;11.958;2022-11-21T15:23:38;1.80;;;1.40;;
16531;SDS011;8378;57.698;11.958;2022-11-21T15:26:23;1.75;;;1.65;;
16531;SDS011;8378;57.698;11.958;2022-11-21T15:28:58;1.50;;;1.40;;
16531;SDS011;8378;57.698;11.958;2022-11-21T15:31:24;1.67;;;1.50;;
16531;SDS011;8378;57.698;11.958;2022-11-21T15:33:55;1.55;;;1.38;;
16531;SDS011;8378;57.698;11.958;2022-11-21T15:36:21;1.48;;;1.38;;
16531;SDS011;8378;57.698;11.958;2022-11-21T15:39:05;2.00;;;1.80;;
16531;SDS011;8378;57.698;11.958;2022-11-21T15:41:36;1.50;;;1.40;;
16531;SDS011;8378;57.698;11.958;2022-11-21T15:48:54;1.83;;;1.60;;
16531;SDS011;8378;57.698;11.958;2022-11-21T15:51:34;1.52;;;1.42;;
16531;SDS011;8378;57.698;11.958;2022-11-21T15:54:02;1.40;;;1.30;;
16531;SDS011;8378;57.698;11.958;2022-11-21T15:56:29;1.60;;;1.50;;
16531;SDS011;8378;57.698;11.958;2022-11-21T15:58:55;1.85;;;1.58;;
16531;SDS011;8378;57.698;11.958;2022-11-21T16:01:21;1.55;;;1.45;;
16531;SDS011;8378;57.698;11.958;2022-11-21T16:03:49;4.55;;;1.70;;
16531;SDS011;8378;57.698;11.958;2022-11-21T16:06:16;2.30;;;1.60;;
16531;SDS011;8378;57.698;11.958;2022-11-21T16:08:42;1.50;;;1.40;;
16531;SDS011;8378;57.698;11.958;2022-11-21T16:11:20;1.33;;;1.23;;
16531;SDS011;8378;57.698;11.958;2022-11-21T16:13:59;2.60;;;1.50;;
16531;SDS011;8378;57.698;11.958;2022-11-21T16:16:27;2.58;;;1.55;;
16531;SDS011;8378;57.698;11.958;2022-11-21T16:18:55;1.88;;;1.52;;
16531;SDS011;8378;57.698;11.958;2022-11-21T16:21:21;2.10;;;1.45;;
16531;SDS011;8378;57.698;11.958;2022-11-21T16:23:47;1.48;;;1.38;;
16531;SDS011;8378;57.698;11.958;2022-11-21T16:26:12;1.50;;;1.40;;
16531;SDS011;8378;57.698;11.958;2022-11-21T16:28:38;1.63;;;1.52;;
16531;SDS011;8378;57.698;11.958;2022-11-21T16:31:04;2.90;;;1.85;;
16531;SDS011;8378;57.698;11.958;2022-11-21T16:33:30;2.78;;;2.00;;
16531;SDS011;8378;57.698;11.958;2022-11-21T16:35:57;2.58;;;2.00;;
16531;SDS011;8378;57.698;11.958;2022-11-21T16:38:24;2.15;;;1.90;;
16531;SDS011;8378;57.698;11.958;2022-11-21T16:40:57;2.05;;;1.73;;
16531;SDS011;8378;57.698;11.958;2022-11-21T16:43:25;2.17;;;1.67;;
16531;SDS011;8378;57.698;11.958;2022-11-21T16:45:53;3.03;;;2.17;;
16531;SDS011;8378;57.698;11.958;2022-11-21T16:48:19;2.35;;;1.90;;
16531;SDS011;8378;57.698;11.958;2022-11-21T16:50:46;2.00;;;1.80;;
16531;SDS011;8378;57.698;11.958;2022-11-21T16:53:12;1.92;;;1.77;;
16531;SDS011;8378;57.698;11.958;2022-11-21T16:55:38;2.10;;;1.90;;
16531;SDS011;8378;57.698;11.958;2022-11-21T16:58:04;2.53;;;2.10;;
16531;SDS011;8378;57.698;11.958;2022-11-21T17:00:29;3.05;;;1.92;;
16531;SDS011;8378;57.698;11.958;2022-11-21T17:02:55;2.72;;;2.00;;